Time;durP1;ratioP1;P1;durP2;ratioP2;P2;SDS_P1;SDS_P2;PMS_P1;PMS_P2;Temp;Humidity;BMP_temperature;BMP_pressure;BME280_temperature;BME280_humidity;BME280_pressure;Samples;Min_cycle;Max_cycle;Signal;HPM_P1;HPM_P2
2021/12/22 00:03:47;;;;;;;34.80;19.40;;;;;;;-4.28;77.82;100762.88;208064;1318;140862;-68
2021/12/22 00:08:52;;;;;;;32.30;18.20;;;;;;;-4.31;77.92;100767.31;207213;1318;141422;-67
2021/12/22 00:13:55;;;;;;;30.60;14.40;;;;;;;-4.46;77.63;100764.23;207877;1316;141204;-67
2021/12/22 00:18:58;;;;;;;29.40;14.70;;;;;;;-4.60;77.85;100769.42;208994;1319;140495;-67
2021/12/22 00:24:00;;;;;;;23.30;14.90;;;;;;;-4.66;78.06;100774.02;208667;1316;140849;-67
2021/12/22 00:29:04;;;;;;;20.10;11.20;;;;;;;-4.73;77.97;100773.52;208155;1317;142451;-67
2021/12/22 00:34:15;;;;;;;27.70;12.50;;;;;;;-4.82;77.69;100776.94;208694;1319;141177;-67
2021/12/22 00:39:17;;;;;;;29.90;13.10;;;;;;;-4.84;77.78;100778.06;208593;1318;141781;-67
2021/12/22 00:44:22;;;;;;;30.50;13.20;;;;;;;-4.81;78.00;100783.09;207911;1319;141207;-65
2021/12/22 00:49:26;;;;;;;21.00;13.00;;;;;;;-4.79;78.21;100785.35;207544;1316;139925;-68
2021/12/22 00:54:28;;;;;;;24.80;13.80;;;;;;;-4.85;78.03;100794.27;207132;1319;141212;-66
2021/12/22 00:59:35;;;;;;;20.40;12.00;;;;;;;-4.94;78.08;100799.80;207807;1316;140180;-67
2021/12/22 01:04:39;;;;;;;15.60;8.20;;;;;;;-5.06;78.03;100804.10;207181;1317;140154;-66
2021/12/22 01:09:43;;;;;;;23.40;10.90;;;;;;;-5.14;78.18;100804.84;207015;1319;140629;-66
2021/12/22 01:14:46;;;;;;;26.70;11.80;;;;;;;-5.13;78.29;100803.02;207171;1318;140467;-67
2021/12/22 01:20:05;;;;;;;27.40;12.30;;;;;;;-5.13;78.20;100799.24;207798;1319;140086;-67
2021/12/22 01:25:12;;;;;;;26.70;14.20;;;;;;;-5.19;78.13;100809.35;207696;1316;141279;-66
2021/12/22 01:30:21;;;;;;;21.20;10.90;;;;;;;-5.26;78.16;100812.48;207506;1318;142168;-66
2021/12/22 01:35:28;;;;;;;25.60;11.60;;;;;;;-5.35;78.10;100814.64;207484;1316;139878;-67
2021/12/22 01:40:34;;;;;;;28.10;11.00;;;;;;;-5.43;78.33;100817.83;207061;1316;140588;-67
2021/12/22 01:46:20;;;;;;;19.70;8.60;;;;;;;-5.52;78.42;100814.61;207493;1318;140384;-67
2021/12/22 01:51:20;;;;;;;33.80;11.40;;;;;;;-5.58;78.28;100817.34;207725;1317;140301;-66
2021/12/22 01:56:27;;;;;;;28.50;12.40;;;;;;;-5.56;78.19;100812.88;207392;1316;140972;-65
2021/12/22 02:01:34;;;;;;;28.60;13.30;;;;;;;-5.55;78.21;100814.52;208068;1316;141394;-66
2021/12/22 02:06:43;;;;;;;29.00;13.40;;;;;;;-5.57;78.14;100823.12;208212;1316;140511;-66
2021/12/22 02:11:53;;;;;;;29.50;12.00;;;;;;;-5.67;77.92;100816.42;208033;1317;141492;-67
2021/12/22 02:16:57;;;;;;;24.70;9.70;;;;;;;-5.78;77.93;100817.81;207103;1318;142984;-66
2021/12/22 02:22:07;;;;;;;17.90;9.50;;;;;;;-5.88;78.04;100818.14;208822;1317;140435;-67
2021/12/22 02:27:20;;;;;;;24.60;11.20;;;;;;;-5.95;78.12;100817.12;208756;1318;140789;-67
2021/12/22 02:37:46;;;;;;;24.90;11.80;;;;;;;-5.90;78.03;100812.61;208520;1317;140688;-67
2021/12/22 02:42:53;;;;;;;25.50;12.80;;;;;;;-5.95;77.99;100813.67;207978;1316;141105;-67
2021/12/22 02:47:56;;;;;;;19.80;10.00;;;;;;;-6.03;78.13;100814.70;207469;1316;141347;-66
2021/12/22 02:58:05;;;;;;;22.20;9.70;;;;;;;-6.23;77.95;100814.66;207696;1319;141024;-66
2021/12/22 03:03:15;;;;;;;17.80;8.90;;;;;;;-6.35;77.67;100812.13;207761;1318;140903;-67
2021/12/22 03:08:18;;;;;;;20.50;10.00;;;;;;;-6.38;77.76;100819.43;207003;1319;139668;-67
2021/12/22 03:13:22;;;;;;;25.00;11.10;;;;;;;-6.51;77.62;100818.89;207272;1317;139341;-67
2021/12/22 03:18:26;;;;;;;28.50;12.40;;;;;;;-6.64;77.81;100824.73;207276;1318;140064;-67
2021/12/22 03:23:29;;;;;;;19.70;10.00;;;;;;;-6.74;77.90;100832.37;207075;1317;140757;-66
2021/12/22 03:28:32;;;;;;;25.10;12.20;;;;;;;-6.87;77.82;100837.44;207143;1316;210543;-67
2021/12/22 03:33:35;;;;;;;21.60;11.50;;;;;;;-6.91;77.85;100842.37;207169;1318;140051;-67
2021/12/22 03:38:42;;;;;;;23.20;10.50;;;;;;;-6.92;77.72;100842.98;207084;1317;139963;-67
2021/12/22 03:43:45;;;;;;;29.90;10.90;;;;;;;-6.98;77.86;100847.28;206969;1316;139743;-68
2021/12/22 03:48:47;;;;;;;28.80;9.30;;;;;;;-7.04;78.09;100848.38;207605;1318;141497;-68
2021/12/22 03:53:57;;;;;;;15.60;9.40;;;;;;;-7.11;78.14;100854.88;207395;1317;139597;-66
2021/12/22 03:59:00;;;;;;;16.70;8.80;;;;;;;-7.17;78.15;100853.30;207254;1318;139538;-67
2021/12/22 04:04:10;;;;;;;13.30;9.20;;;;;;;-7.24;77.89;100853.77;206816;1318;140318;-66
2021/12/22 04:09:16;;;;;;;14.80;9.30;;;;;;;-7.30;77.64;100855.15;207103;1318;140915;-66
2021/12/22 04:14:18;;;;;;;16.50;8.20;;;;;;;-7.26;77.84;100853.88;207668;1318;141190;-67
2021/12/22 04:19:21;;;;;;;21.80;10.00;;;;;;;-7.19;77.87;100845.66;208220;1318;141237;-65
2021/12/22 04:24:24;;;;;;;24.90;11.80;;;;;;;-7.18;77.94;100846.52;208048;1319;140450;-66
2021/12/22 04:29:26;;;;;;;25.50;13.50;;;;;;;-7.28;77.63;100853.30;207949;1318;139896;-66
2021/12/22 04:34:30;;;;;;;18.90;10.70;;;;;;;-7.36;77.75;100860.25;208214;1317;139873;-66
2021/12/22 04:39:33;;;;;;;17.70;7.20;;;;;;;-7.41;77.67;100856.71;208907;1316;140645;-66
2021/12/22 04:44:36;;;;;;;24.40;12.20;;;;;;;-7.51;77.50;100855.77;209175;1318;140267;-67
2021/12/22 04:49:40;;;;;;;29.00;14.00;;;;;;;-7.57;77.22;100852.64;207707;1318;140132;-67
2021/12/22 04:55:03;;;;;;;41.60;18.90;;;;;;;-7.60;77.12;100855.98;208747;1318;142788;-67
2021/12/22 05:00:10;;;;;;;28.40;15.60;;;;;;;-7.61;77.78;100858.11;208921;1316;140871;-67
2021/12/22 05:05:14;;;;;;;19.20;10.50;;;;;;;-7.59;78.06;100857.43;207727;1316;141221;-68
2021/12/22 05:10:17;;;;;;;24.00;12.30;;;;;;;-7.52;78.19;100861.53;207774;1316;141322;-67
2021/12/22 05:15:23;;;;;;;24.30;13.70;;;;;;;-7.40;78.33;100865.47;208461;1318;140698;-66
2021/12/22 05:20:27;;;;;;;30.50;14.10;;;;;;;-7.27;78.66;100867.23;208099;1316;139943;-67
2021/12/22 05:25:30;;;;;;;34.00;15.20;;;;;;;-7.18;78.70;100875.70;207677;1316;209510;-67
2021/12/22 05:30:33;;;;;;;16.90;10.30;;;;;;;-7.12;79.07;100878.81;207390;1316;142217;-65
2021/12/22 05:35:36;;;;;;;18.20;9.50;;;;;;;-7.08;79.02;100874.59;207982;1318;140516;-65
2021/12/22 05:40:39;;;;;;;24.80;14.40;;;;;;;-7.07;78.95;100878.15;207441;1319;140575;-68
2021/12/22 05:45:43;;;;;;;22.10;13.40;;;;;;;-6.99;79.01;100875.87;207324;1317;141402;-69
2021/12/22 05:50:50;;;;;;;29.20;15.60;;;;;;;-6.90;79.10;100879.80;207124;1317;142959;-67
2021/12/22 05:55:54;;;;;;;23.10;11.30;;;;;;;-6.82;79.49;100881.38;207247;1318;489437;-69
2021/12/22 06:00:57;;;;;;;21.10;10.90;;;;;;;-6.77;79.60;100886.31;207136;1319;143694;-68
2021/12/22 06:06:01;;;;;;;37.30;16.40;;;;;;;-6.73;79.82;100892.05;207465;1316;141926;-67
2021/12/22 06:11:05;;;;;;;38.10;15.50;;;;;;;-6.56;79.93;100896.70;207858;1316;141630;-69
2021/12/22 06:16:09;;;;;;;34.20;14.80;;;;;;;-6.43;80.16;100905.58;207283;1318;142525;-69
2021/12/22 06:21:14;;;;;;;48.90;23.30;;;;;;;-6.34;80.22;100913.59;206702;1318;141321;-68
2021/12/22 06:26:17;;;;;;;35.60;16.90;;;;;;;-6.26;80.38;100915.86;208348;1317;142383;-71
2021/12/22 06:31:21;;;;;;;23.70;14.20;;;;;;;-6.22;80.30;100923.54;207960;1318;141505;-69
2021/12/22 06:36:26;;;;;;;41.80;18.00;;;;;;;-6.19;80.24;100933.07;207806;1317;140559;-69
2021/12/22 06:41:31;;;;;;;28.50;14.40;;;;;;;-6.19;80.05;100937.07;208597;1316;139852;-69
2021/12/22 06:46:34;;;;;;;31.50;14.70;;;;;;;-6.18;79.58;100943.72;208281;1319;140308;-70
2021/12/22 06:51:40;;;;;;;25.40;13.00;;;;;;;-6.21;79.24;100953.44;208740;1319;140647;-70
2021/12/22 06:56:43;;;;;;;34.60;15.70;;;;;;;-6.21;79.30;100963.98;209493;1318;140759;-67
2021/12/22 07:01:46;;;;;;;29.20;12.90;;;;;;;-6.25;79.18;100967.38;209199;1316;140566;-69
2021/12/22 07:06:52;;;;;;;21.70;11.00;;;;;;;-6.32;79.02;100975.91;208105;1317;140619;-68
2021/12/22 07:11:55;;;;;;;21.20;10.30;;;;;;;-6.37;79.20;100976.42;207843;1318;140259;-69
2021/12/22 07:16:58;;;;;;;29.00;14.30;;;;;;;-6.33;79.45;100976.16;208166;1318;140467;-67
2021/12/22 07:22:00;;;;;;;24.00;12.00;;;;;;;-6.17;79.58;100977.60;208359;1319;141886;-69
2021/12/22 07:27:03;;;;;;;29.50;16.50;;;;;;;-6.02;79.69;100982.15;207520;1318;140637;-66
2021/12/22 07:32:06;;;;;;;30.70;16.20;;;;;;;-5.94;79.56;100983.84;207338;1318;143321;-69
2021/12/22 07:37:15;;;;;;;33.80;17.20;;;;;;;-5.90;79.69;100987.21;206856;1316;141779;-71
2021/12/22 07:42:18;;;;;;;28.10;18.30;;;;;;;-5.82;79.95;100996.91;207781;1318;142336;-73
2021/12/22 07:47:21;;;;;;;32.00;16.30;;;;;;;-5.73;80.11;101004.61;207319;1319;143941;-70
2021/12/22 07:52:27;;;;;;;27.50;15.60;;;;;;;-5.63;80.04;101002.77;206672;1318;141560;-70
2021/12/22 07:57:29;;;;;;;26.30;14.10;;;;;;;-5.49;79.80;100998.20;207276;1317;141385;-68
2021/12/22 08:02:32;;;;;;;26.90;14.90;;;;;;;-5.31;80.09;100999.41;206921;1317;141262;-67
2021/12/22 08:07:36;;;;;;;30.90;15.50;;;;;;;-5.15;80.16;101001.60;206692;1318;142531;-67
2021/12/22 08:12:41;;;;;;;27.60;15.10;;;;;;;-4.99;80.19;100999.34;206915;1318;152322;-67
2021/12/22 08:17:44;;;;;;;26.30;14.70;;;;;;;-4.85;80.43;100999.44;207523;1317;141083;-70
2021/12/22 08:22:48;;;;;;;24.90;12.80;;;;;;;-4.71;80.33;101008.16;206834;1318;141718;-69
2021/12/22 08:27:51;;;;;;;22.10;13.80;;;;;;;-4.58;80.01;101008.42;206788;1318;154207;-68
2021/12/22 08:32:55;;;;;;;22.90;14.90;;;;;;;-4.41;80.21;101009.52;207776;1318;139979;-68
2021/12/22 08:43:19;;;;;;;21.20;11.90;;;;;;;-4.13;80.11;101013.91;208333;1318;141214;-68
2021/12/22 08:48:21;;;;;;;30.60;15.30;;;;;;;-4.02;79.89;101017.35;208141;1318;140467;-68
2021/12/22 08:53:23;;;;;;;27.20;14.10;;;;;;;-3.85;79.72;101023.02;208302;1320;140801;-68
2021/12/22 08:58:26;;;;;;;27.20;15.50;;;;;;;-3.67;79.60;101025.23;209152;1318;139989;-70
2021/12/22 09:03:28;;;;;;;21.60;10.40;;;;;;;-3.54;79.36;101022.33;209209;1318;139765;-69
2021/12/22 09:08:31;;;;;;;26.80;14.80;;;;;;;-3.48;79.14;101022.77;208615;1316;140869;-70
2021/12/22 09:13:36;;;;;;;33.80;16.40;;;;;;;-3.39;78.93;101021.73;207344;1316;141816;-69
2021/12/22 09:18:40;;;;;;;28.50;14.40;;;;;;;-3.20;79.36;101027.99;208170;1316;139846;-67
2021/12/22 09:23:43;;;;;;;25.20;13.30;;;;;;;-3.02;79.41;101030.81;207453;1316;140984;-67
2021/12/22 09:28:46;;;;;;;28.60;14.60;;;;;;;-2.88;79.37;101028.48;207188;1317;142805;-67
2021/12/22 09:33:50;;;;;;;26.10;13.60;;;;;;;-2.77;79.03;101021.77;206754;1316;140283;-66
2021/12/22 09:38:53;;;;;;;29.70;14.60;;;;;;;-2.70;79.09;101019.64;208272;1319;140453;-69
2021/12/22 09:43:59;;;;;;;23.90;12.60;;;;;;;-2.62;79.14;101017.27;208076;1319;139885;-70
2021/12/22 09:49:19;;;;;;;29.10;15.10;;;;;;;-2.58;78.99;101014.66;207526;1316;140482;-71
2021/12/22 09:54:22;;;;;;;22.40;12.00;;;;;;;-2.50;78.47;101007.11;207343;1317;142442;-70
2021/12/22 09:59:26;;;;;;;25.90;14.20;;;;;;;-2.46;78.33;101008.83;207003;1319;140880;-69
2021/12/22 10:04:32;;;;;;;23.70;13.00;;;;;;;-2.44;78.37;101007.65;208441;1317;142402;-69
2021/12/22 10:09:47;;;;;;;25.40;12.00;;;;;;;-2.46;78.06;101007.32;207681;1318;141632;-65
2021/12/22 10:14:57;;;;;;;25.50;13.60;;;;;;;-2.42;78.04;101007.49;207069;1319;140351;-66
2021/12/22 10:20:08;;;;;;;30.10;14.20;;;;;;;-2.40;78.13;101010.66;207225;1317;140768;-67
2021/12/22 10:25:19;;;;;;;24.30;13.60;;;;;;;-2.38;78.05;101009.60;207842;1317;140115;-66
2021/12/22 10:30:34;;;;;;;29.00;15.30;;;;;;;-2.32;77.94;101002.58;207907;1317;141758;-66
2021/12/22 10:35:42;;;;;;;41.10;17.90;;;;;;;-2.23;77.85;101010.70;207148;1316;140906;-66
2021/12/22 10:40:57;;;;;;;36.30;16.50;;;;;;;-2.10;77.89;101008.42;207571;1317;141337;-69
2021/12/22 10:46:05;;;;;;;40.10;14.80;;;;;;;-1.86;77.88;101006.66;208438;1317;150822;-69
2021/12/22 10:51:08;;;;;;;27.70;14.20;;;;;;;-1.67;77.50;101006.48;207867;1318;140448;-68
2021/12/22 10:56:21;;;;;;;21.10;12.20;;;;;;;-1.44;77.54;101001.63;208361;1318;161404;-70
2021/12/22 11:01:24;;;;;;;23.00;11.00;;;;;;;-1.24;76.97;101001.77;208530;1319;140362;-68
2021/12/22 11:06:30;;;;;;;22.80;12.00;;;;;;;-1.11;76.44;100993.80;209089;1317;140063;-69
2021/12/22 11:11:36;;;;;;;19.50;10.40;;;;;;;-0.93;76.06;100990.58;208692;1316;140612;-73
2021/12/22 11:16:58;;;;;;;25.90;13.30;;;;;;;-0.79;75.92;100988.83;208639;1318;141591;-68
2021/12/22 11:22:16;;;;;;;20.50;10.60;;;;;;;-0.73;75.47;100990.06;206958;1318;140732;-70
2021/12/22 11:27:22;;;;;;;20.10;10.40;;;;;;;-0.64;75.32;100993.70;208067;1316;140138;-71
2021/12/22 11:32:28;;;;;;;16.30;8.80;;;;;;;-0.60;74.93;100990.75;207613;1319;140147;-72
2021/12/22 11:37:32;;;;;;;16.80;9.50;;;;;;;-0.58;74.86;100989.45;208448;1318;142420;-68
2021/12/22 11:42:39;;;;;;;21.00;11.50;;;;;;;-0.52;74.61;100975.69;207745;1318;139518;-69
2021/12/22 11:47:48;;;;;;;18.60;11.40;;;;;;;-0.39;74.63;100976.27;207732;1318;141804;-68
2021/12/22 11:53:02;;;;;;;21.50;11.90;;;;;;;-0.32;74.20;100979.87;207126;1318;208754;-68
2021/12/22 11:58:22;;;;;;;15.60;9.60;;;;;;;-0.28;73.95;100975.86;207493;1318;143091;-68
2021/12/22 12:03:34;;;;;;;20.30;8.50;;;;;;;-0.25;73.21;100975.79;207743;1318;141316;-69
2021/12/22 12:08:41;;;;;;;23.90;10.70;;;;;;;-0.18;73.32;100967.98;207894;1319;139566;-69
2021/12/22 12:14:02;;;;;;;17.60;10.60;;;;;;;-0.14;73.08;100966.39;207664;1317;140346;-69
2021/12/22 12:24:54;;;;;;;16.20;9.90;;;;;;;-0.05;73.10;100968.20;206941;1316;141024;-70
2021/12/22 12:30:06;;;;;;;20.00;10.50;;;;;;;-0.02;72.55;100957.45;207146;1319;151374;-67
2021/12/22 12:35:26;;;;;;;19.20;10.60;;;;;;;-0.06;72.28;100957.25;207719;1318;140626;-68
2021/12/22 12:40:59;;;;;;;16.20;10.70;;;;;;;-0.04;72.10;100960.77;207999;1319;141890;-67
2021/12/22 12:46:02;;;;;;;20.80;11.00;;;;;;;-0.10;71.88;100954.14;208624;1317;140182;-67
2021/12/22 12:51:33;;;;;;;17.80;9.80;;;;;;;-0.05;71.66;100956.13;207789;1316;139656;-66
2021/12/22 12:56:42;;;;;;;22.90;10.70;;;;;;;0.06;71.63;100954.84;208021;1317;139419;-67
2021/12/22 13:01:50;;;;;;;22.80;10.90;;;;;;;0.08;71.40;100960.89;208718;1317;140847;-67
2021/12/22 13:07:17;;;;;;;21.20;13.50;;;;;;;0.13;71.44;100966.58;208493;1319;140385;-67
2021/12/22 13:17:30;;;;;;;19.70;11.80;;;;;;;0.04;70.91;100972.86;208157;1319;139691;-69
2021/12/22 13:22:35;;;;;;;24.90;14.20;;;;;;;-0.08;70.68;100969.86;207273;1315;140364;-70
2021/12/22 13:27:42;;;;;;;26.60;15.40;;;;;;;-0.15;71.03;100964.54;207355;1318;140358;-70
2021/12/22 13:32:58;;;;;;;29.40;16.60;;;;;;;-0.21;71.27;100962.15;206889;1318;140526;-71
2021/12/22 13:38:04;;;;;;;31.20;15.10;;;;;;;-0.34;71.25;100965.16;207740;1318;140457;-70
2021/12/22 13:43:16;;;;;;;28.80;17.90;;;;;;;-0.46;71.44;100969.38;207200;1318;139637;-70
2021/12/22 13:48:28;;;;;;;33.50;16.20;;;;;;;-0.64;70.99;100974.30;207388;1317;139766;-70
2021/12/22 13:53:33;;;;;;;32.80;16.60;;;;;;;-0.80;70.84;100974.45;207087;1318;269220;-66
2021/12/22 13:58:46;;;;;;;47.30;20.40;;;;;;;-0.90;71.22;100976.56;206682;1318;140755;-68
2021/12/22 14:03:58;;;;;;;38.10;17.80;;;;;;;-1.00;71.25;100976.91;207525;1316;140841;-70
2021/12/22 14:09:08;;;;;;;31.70;17.20;;;;;;;-1.18;71.50;100972.47;207169;1318;140473;-66
2021/12/22 14:14:34;;;;;;;52.30;25.90;;;;;;;-1.36;71.64;100972.77;207058;1316;140956;-70
2021/12/22 14:19:49;;;;;;;69.90;27.60;;;;;;;-1.56;71.64;100968.13;207562;1318;140105;-66
2021/12/22 14:24:54;;;;;;;35.30;19.60;;;;;;;-1.72;72.00;100968.10;206838;1318;140305;-69
2021/12/22 14:30:00;;;;;;;45.40;20.90;;;;;;;-1.91;71.71;100969.98;207022;1318;208570;-66
2021/12/22 14:35:08;;;;;;;41.10;20.30;;;;;;;-2.08;71.82;100975.33;207019;1318;151180;-65
2021/12/22 14:40:22;;;;;;;43.90;18.90;;;;;;;-2.14;72.06;100970.30;206876;1318;140825;-65
2021/12/22 14:45:32;;;;;;;33.90;18.20;;;;;;;-2.19;72.31;100972.30;208047;1318;141704;-65
2021/12/22 14:50:38;;;;;;;31.30;15.60;;;;;;;-2.29;72.08;100971.64;208252;1318;140327;-66
2021/12/22 14:55:47;;;;;;;35.60;17.80;;;;;;;-2.39;72.32;100973.29;206900;1316;140085;-64
2021/12/22 15:00:50;;;;;;;38.20;15.90;;;;;;;-2.51;72.38;100971.48;208119;1317;139515;-66
2021/12/22 15:05:56;;;;;;;25.90;14.60;;;;;;;-2.63;72.32;100971.27;209064;1314;139839;-71
2021/12/22 15:11:00;;;;;;;24.60;11.70;;;;;;;-2.74;72.48;100971.69;208095;1318;141388;-69
2021/12/22 15:16:04;;;;;;;24.40;11.50;;;;;;;-2.85;72.49;100978.55;209012;1315;141792;-70
2021/12/22 15:21:07;;;;;;;24.40;11.30;;;;;;;-2.95;72.55;100981.23;209391;1318;142419;-65
2021/12/22 15:26:10;;;;;;;37.80;16.60;;;;;;;-3.07;72.60;100973.94;208331;1316;140487;-66
2021/12/22 15:31:14;;;;;;;34.90;15.10;;;;;;;-3.14;72.48;100978.14;208359;1318;140614;-65
2021/12/22 15:36:17;;;;;;;32.30;16.70;;;;;;;-3.24;72.50;100976.80;208284;1318;230429;-66
2021/12/22 15:41:20;;;;;;;37.30;16.40;;;;;;;-3.30;72.74;100972.39;206633;1318;140664;-66
2021/12/22 15:46:22;;;;;;;30.20;15.20;;;;;;;-3.43;72.95;100970.63;208057;1318;139879;-66
2021/12/22 15:51:25;;;;;;;43.70;21.30;;;;;;;-3.55;73.19;100976.02;207297;1317;139717;-67
2021/12/22 15:56:28;;;;;;;32.60;16.10;;;;;;;-3.58;73.52;100981.08;206982;1317;140734;-70
2021/12/22 16:01:36;;;;;;;46.20;23.00;;;;;;;-3.61;73.92;100974.89;207553;1318;142342;-68
2021/12/22 16:06:41;;;;;;;48.70;23.00;;;;;;;-3.53;74.29;100975.35;207406;1318;141126;-66
2021/12/22 16:11:44;;;;;;;45.20;23.00;;;;;;;-3.46;74.54;100971.70;207200;1317;140788;-66
2021/12/22 16:16:48;;;;;;;50.40;20.10;;;;;;;-3.40;74.80;100966.56;207102;1318;142394;-67
2021/12/22 16:21:51;;;;;;;56.60;27.50;;;;;;;-3.35;74.94;100967.90;207419;1318;140518;-66
2021/12/22 16:26:55;;;;;;;60.90;29.30;;;;;;;-3.30;75.32;100966.63;206846;1318;140803;-66
2021/12/22 16:31:58;;;;;;;60.00;27.10;;;;;;;-3.28;75.57;100970.48;207250;1318;140594;-66
2021/12/22 16:37:04;;;;;;;40.30;20.40;;;;;;;-3.28;75.60;100967.38;207002;1317;140623;-65
2021/12/22 16:42:11;;;;;;;;;;;;;;;-3.27;75.87;100968.33;207377;1317;140306;-67
2021/12/22 16:47:18;;;;;;;59.00;27.20;;;;;;;-3.24;75.72;100973.17;207435;1318;128334;-63
2021/12/22 16:52:24;;;;;;;65.30;29.20;;;;;;;-3.17;75.97;100966.22;207835;1318;140163;-66
2021/12/22 16:57:40;;;;;;;59.10;28.30;;;;;;;-3.15;75.89;100956.61;207973;1316;139790;-68
2021/12/22 17:02:46;;;;;;;54.60;26.80;;;;;;;-3.12;76.04;100949.80;207138;1316;142892;-65
2021/12/22 17:07:50;;;;;;;54.00;28.80;;;;;;;-3.13;76.06;100939.13;207327;1316;142545;-67
2021/12/22 17:13:08;;;;;;;46.50;25.10;;;;;;;-3.16;76.02;100935.46;207854;1318;140865;-69
2021/12/22 17:18:12;;;;;;;43.40;20.70;;;;;;;-3.19;76.15;100928.11;208102;1317;139785;-70
2021/12/22 17:23:17;;;;;;;54.60;29.10;;;;;;;-3.24;75.94;100920.85;209500;1317;140110;-68
2021/12/22 17:28:29;;;;;;;58.40;27.90;;;;;;;-3.24;75.92;100912.81;208568;1314;141675;-67
2021/12/22 17:33:32;;;;;;;62.40;32.40;;;;;;;-3.15;75.97;100903.77;208876;1316;142270;-66
2021/12/22 17:38:39;;;;;;;66.40;31.70;;;;;;;-3.11;76.13;100901.41;208955;1318;140234;-65
2021/12/22 17:43:44;;;;;;;65.50;27.10;;;;;;;-3.10;76.18;100902.67;208102;1317;140498;-65
2021/12/22 17:48:46;;;;;;;64.10;29.60;;;;;;;-3.14;76.32;100905.79;208066;1318;139726;-68
2021/12/22 17:53:49;;;;;;;66.30;30.60;;;;;;;-3.20;76.07;100905.36;206995;1317;140684;-69
2021/12/22 17:58:54;;;;;;;47.00;26.40;;;;;;;-3.29;76.04;100908.00;207410;1317;140900;-66
2021/12/22 18:04:00;;;;;;;63.40;29.80;;;;;;;-3.47;75.68;100907.67;207520;1318;141277;-66
2021/12/22 18:09:06;;;;;;;56.60;25.40;;;;;;;-3.58;75.72;100908.52;207365;1318;143634;-65
2021/12/22 18:14:16;;;;;;;60.60;30.30;;;;;;;-3.69;75.84;100903.58;207108;1317;141116;-67
2021/12/22 18:19:20;;;;;;;74.50;33.30;;;;;;;-3.82;75.98;100900.37;207184;1316;140840;-66
2021/12/22 18:24:24;;;;;;;76.10;37.20;;;;;;;-3.92;76.29;100894.66;207316;1317;141639;-66
2021/12/22 18:29:27;;;;;;;87.30;40.50;;;;;;;-3.94;76.59;100885.09;207351;1316;142413;-66
2021/12/22 18:34:32;;;;;;;86.50;39.70;;;;;;;-3.97;76.71;100879.29;207226;1317;142122;-66
2021/12/22 18:39:35;;;;;;;100.40;42.50;;;;;;;-4.01;77.05;100879.77;207575;1318;142094;-66
2021/12/22 18:44:41;;;;;;;98.90;47.50;;;;;;;-4.02;77.08;100878.43;207049;1318;140906;-66
2021/12/22 18:49:45;;;;;;;85.60;40.50;;;;;;;-3.99;76.99;100874.39;208063;1318;140795;-67
2021/12/22 18:54:53;;;;;;;93.70;42.10;;;;;;;-3.94;76.97;100872.92;207227;1317;140188;-66
2021/12/22 18:59:56;;;;;;;88.30;39.90;;;;;;;-3.92;77.12;100872.16;206860;1317;140270;-66
2021/12/22 19:05:04;;;;;;;85.20;40.20;;;;;;;-3.96;77.03;100872.11;208596;1317;141661;-67
2021/12/22 19:10:09;;;;;;;80.70;35.30;;;;;;;-3.99;77.15;100870.43;206754;1316;140573;-66
2021/12/22 19:15:15;;;;;;;78.80;36.40;;;;;;;-4.05;76.99;100863.21;207611;1318;142140;-66
2021/12/22 19:20:18;;;;;;;87.30;39.20;;;;;;;-4.14;76.89;100862.98;209054;1318;141106;-67
2021/12/22 19:25:22;;;;;;;82.80;40.30;;;;;;;-4.17;76.85;100863.09;208180;1316;143084;-67
2021/12/22 19:30:27;;;;;;;92.40;42.00;;;;;;;-4.16;76.83;100856.00;208352;1318;141406;-67
2021/12/22 19:35:37;;;;;;;89.60;44.80;;;;;;;-4.16;76.98;100849.75;207376;1318;141531;-66
2021/12/22 19:40:42;;;;;;;77.40;38.50;;;;;;;-4.21;76.88;100844.45;208518;1318;140909;-66
2021/12/22 19:45:46;;;;;;;87.30;39.10;;;;;;;-4.25;77.12;100848.36;208235;1318;140984;-66
2021/12/22 19:50:50;;;;;;;80.60;39.10;;;;;;;-4.29;77.24;100845.38;207113;1316;139894;-66
2021/12/22 19:55:58;;;;;;;86.30;39.30;;;;;;;-4.34;77.19;100840.38;207689;1318;140503;-66
2021/12/22 20:01:06;;;;;;;84.60;39.40;;;;;;;-4.40;77.26;100836.27;207430;1318;140587;-66
2021/12/22 20:06:31;;;;;;;85.80;41.50;;;;;;;-4.41;77.00;100835.14;207495;1317;142717;-66
2021/12/22 20:11:35;;;;;;;94.60;41.30;;;;;;;-4.41;77.15;100830.46;208164;1316;140743;-66
2021/12/22 20:16:38;;;;;;;83.30;37.10;;;;;;;-4.43;77.34;100828.83;206811;1318;141178;-66
2021/12/22 20:21:41;;;;;;;92.00;40.20;;;;;;;-4.42;77.55;100829.14;207699;1316;141308;-66
2021/12/22 20:26:44;;;;;;;73.20;35.90;;;;;;;-4.41;77.66;100826.11;206890;1319;140953;-66
2021/12/22 20:31:48;;;;;;;69.50;31.20;;;;;;;-4.42;77.85;100820.45;207120;1318;141808;-66
2021/12/22 20:36:51;;;;;;;77.90;36.30;;;;;;;-4.43;77.79;100820.17;207404;1316;141252;-66
2021/12/22 20:41:55;;;;;;;80.80;35.50;;;;;;;-4.37;77.70;100817.00;208024;1317;142308;-66
2021/12/22 20:46:58;;;;;;;82.20;36.80;;;;;;;-4.33;77.94;100810.48;207296;1316;141764;-65
2021/12/22 20:52:01;;;;;;;62.30;27.00;;;;;;;-4.35;77.79;100806.58;206656;1318;142321;-66
2021/12/22 20:57:04;;;;;;;69.40;31.50;;;;;;;-4.42;77.83;100799.98;206852;1318;141596;-66
2021/12/22 21:02:08;;;;;;;90.90;36.50;;;;;;;-4.47;77.98;100797.24;207759;1317;142066;-66
2021/12/22 21:07:11;;;;;;;87.70;35.30;;;;;;;-4.42;77.78;100794.95;207119;1317;141555;-66
2021/12/22 21:12:17;;;;;;;79.40;35.40;;;;;;;-4.32;78.11;100793.23;207810;1318;234470;-66
2021/12/22 21:17:20;;;;;;;74.30;36.80;;;;;;;-4.24;78.35;100789.81;208291;1318;141318;-67
2021/12/22 21:22:23;;;;;;;55.40;24.90;;;;;;;-4.19;78.27;100791.16;208822;1316;141363;-66
2021/12/22 21:27:26;;;;;;;73.20;29.40;;;;;;;-4.19;78.04;100780.39;207591;1319;161837;-66
2021/12/22 21:32:29;;;;;;;77.80;34.70;;;;;;;-4.11;77.97;100776.70;207564;1318;142336;-66
2021/12/22 21:37:33;;;;;;;76.50;34.80;;;;;;;-4.01;78.23;100782.36;208277;1318;141176;-66
2021/12/22 21:42:36;;;;;;;56.50;27.30;;;;;;;-3.98;78.16;100783.18;208000;1318;140591;-66
2021/12/22 21:47:39;;;;;;;64.10;31.90;;;;;;;-4.01;78.05;100783.38;208713;1318;141848;-66
2021/12/22 21:52:45;;;;;;;67.20;27.90;;;;;;;-3.92;78.03;100785.81;206641;1318;600059;-65
2021/12/22 21:57:48;;;;;;;61.80;30.40;;;;;;;-3.85;78.15;100780.29;207892;1318;141309;-66
2021/12/22 22:02:51;;;;;;;80.20;35.40;;;;;;;-3.80;77.97;100779.66;207404;1318;140612;-65
2021/12/22 22:07:56;;;;;;;63.60;33.30;;;;;;;-3.77;78.25;100770.42;207013;1318;139769;-66
2021/12/22 22:13:00;;;;;;;66.30;32.60;;;;;;;-3.72;78.48;100765.03;207571;1318;140055;-66
2021/12/22 22:18:03;;;;;;;51.60;24.80;;;;;;;-3.70;78.24;100767.83;206617;1317;141275;-65
2021/12/22 22:23:07;;;;;;;58.10;30.20;;;;;;;-3.73;78.31;100760.39;206674;1318;140204;-65
2021/12/22 22:28:09;;;;;;;59.10;32.60;;;;;;;-3.68;78.43;100753.64;207132;1318;141823;-66
2021/12/22 22:33:12;;;;;;;75.00;30.10;;;;;;;-3.62;78.50;100744.12;206738;1318;141179;-66
2021/12/22 22:38:15;;;;;;;62.50;28.40;;;;;;;-3.59;78.47;100739.67;207460;1318;140995;-66
2021/12/22 22:43:18;;;;;;;65.30;31.80;;;;;;;-3.59;78.32;100742.10;207529;1317;140202;-66
2021/12/22 22:48:22;;;;;;;51.30;26.30;;;;;;;-3.60;78.55;100740.61;207226;1318;210332;-66
2021/12/22 22:53:25;;;;;;;60.30;27.60;;;;;;;-3.60;78.33;100739.42;208522;1316;141752;-66
2021/12/22 22:58:28;;;;;;;63.80;29.50;;;;;;;-3.61;78.46;100738.08;207048;1317;141220;-66
2021/12/22 23:03:31;;;;;;;59.00;28.40;;;;;;;-3.59;78.51;100734.86;208000;1317;142440;-66
2021/12/22 23:08:40;;;;;;;71.10;29.30;;;;;;;-3.60;78.36;100724.29;207335;1317;142450;-66